Time;durP1;ratioP1;P1;durP2;ratioP2;P2;SDS_P1;SDS_P2;PMS_P1;PMS_P2;Temp;Humidity;BMP_temperature;BMP_pressure;BME280_temperature;BME280_humidity;BME280_pressure;Samples;Min_cycle;Max_cycle;Signal;HPM_P1;HPM_P2
2022/02/21 00:02:08;;;;;;;0.70;0.50;;;9.80;99.90;;;;;;4998825;28;20249;-78
2022/02/21 00:04:34;;;;;;;0.77;0.50;;;9.80;99.90;;;;;;5016547;28;20184;-78
2022/02/21 00:07:01;;;;;;;1.60;0.60;;;9.80;99.90;;;;;;5000212;28;20204;-78
2022/02/21 00:09:27;;;;;;;1.83;0.70;;;9.80;99.90;;;;;;5002661;28;20192;-78
2022/02/21 00:11:53;;;;;;;0.63;0.53;;;9.80;99.90;;;;;;5000245;28;20742;-78
2022/02/21 00:14:19;;;;;;;1.90;0.40;;;9.70;99.90;;;;;;5014808;28;20186;-78
2022/02/21 00:16:44;;;;;;;0.97;0.50;;;9.70;99.90;;;;;;5001448;28;20238;-79
2022/02/21 00:19:10;;;;;;;0.40;0.40;;;9.70;99.90;;;;;;5001530;28;20199;-79
2022/02/21 00:21:35;;;;;;;0.77;0.40;;;9.80;99.90;;;;;;4999043;28;20184;-79
2022/02/21 00:24:01;;;;;;;1.30;0.37;;;9.70;99.90;;;;;;4999785;28;20184;-79
2022/02/21 00:26:27;;;;;;;0.60;0.30;;;9.80;99.90;;;;;;5001711;28;20207;-79
2022/02/21 00:28:52;;;;;;;0.43;0.30;;;9.70;99.90;;;;;;5002700;28;20582;-79
2022/02/21 00:31:18;;;;;;;1.03;0.30;;;9.70;99.90;;;;;;5016742;28;20545;-78
2022/02/21 00:33:44;;;;;;;1.50;0.43;;;9.70;99.90;;;;;;4999199;28;20180;-78
2022/02/21 00:36:09;;;;;;;0.40;0.40;;;9.70;99.90;;;;;;5000601;28;20275;-78
2022/02/21 00:38:35;;;;;;;0.70;0.40;;;9.80;99.90;;;;;;5000077;28;20237;-78
2022/02/21 00:41:02;;;;;;;0.63;0.40;;;9.80;99.90;;;;;;5000381;28;20188;-78
2022/02/21 00:43:27;;;;;;;0.40;0.40;;;9.70;99.90;;;;;;5000405;28;20188;-78
2022/02/21 00:45:53;;;;;;;0.83;0.40;;;9.80;99.90;;;;;;4998959;28;20232;-78
2022/02/21 00:48:19;;;;;;;0.80;0.40;;;9.90;99.90;;;;;;5000125;28;20676;-78
2022/02/21 00:50:44;;;;;;;0.47;0.30;;;9.90;99.90;;;;;;4996704;28;21006;-76
2022/02/21 00:53:10;;;;;;;1.40;0.53;;;9.90;99.90;;;;;;5000137;28;20176;-77
2022/02/21 00:55:36;;;;;;;0.33;0.30;;;10.00;99.90;;;;;;5000896;28;20567;-79
2022/02/21 00:58:05;;;;;;;0.37;0.30;;;9.90;99.90;;;;;;5002847;28;20187;-78
2022/02/21 01:00:32;;;;;;;1.30;0.50;;;9.70;99.90;;;;;;5001677;28;20290;-79
2022/02/21 01:02:58;;;;;;;1.93;0.43;;;9.60;99.90;;;;;;4998952;28;20195;-79
2022/02/21 01:05:24;;;;;;;2.13;0.33;;;9.40;99.90;;;;;;4999048;28;20191;-78
2022/02/21 01:07:50;;;;;;;1.77;0.80;;;8.80;99.90;;;;;;4999583;28;20203;-81
2022/02/21 01:10:16;;;;;;;3.57;0.50;;;7.10;99.90;;;;;;4998616;28;20282;-78
2022/02/21 01:12:41;;;;;;;2.53;0.40;;;6.30;99.90;;;;;;5000039;28;20190;-78
2022/02/21 01:15:09;;;;;;;1.50;0.37;;;6.10;99.90;;;;;;4999247;28;21092;-79
2022/02/21 01:17:34;;;;;;;0.87;0.63;;;6.10;99.90;;;;;;4998929;28;20203;-80
2022/02/21 01:20:03;;;;;;;2.77;1.30;;;6.20;99.90;;;;;;4998991;28;20208;-78
2022/02/21 01:22:30;;;;;;;2.50;0.87;;;6.30;99.90;;;;;;4998673;28;20220;-78
2022/02/21 01:24:56;;;;;;;2.30;0.90;;;6.40;99.90;;;;;;5014244;28;20218;-78
2022/02/21 01:27:21;;;;;;;3.30;1.20;;;6.50;99.90;;;;;;4995370;28;20260;-78
2022/02/21 01:29:47;;;;;;;1.73;1.13;;;6.60;99.90;;;;;;4999056;28;20203;-79
2022/02/21 01:32:12;;;;;;;3.73;0.70;;;6.60;99.90;;;;;;5028606;28;20187;-79
2022/02/21 01:34:38;;;;;;;0.47;0.40;;;6.70;99.90;;;;;;5012801;28;20183;-79
2022/02/21 01:37:04;;;;;;;0.80;0.60;;;6.70;99.90;;;;;;5000144;28;20832;-79
2022/02/21 01:39:30;;;;;;;0.43;0.40;;;6.70;99.90;;;;;;4998546;28;21006;-80
2022/02/21 01:41:55;;;;;;;0.67;0.30;;;6.70;99.90;;;;;;4999473;28;20184;-79
2022/02/21 01:44:53;;;;;;;1.07;0.50;;;6.90;99.90;;;;;;5014403;28;20654;-79
2022/02/21 01:47:21;;;;;;;1.43;0.40;;;7.00;99.90;;;;;;4998708;28;20208;-80
2022/02/21 01:49:48;;;;;;;0.50;0.33;;;7.10;99.90;;;;;;4998234;28;20218;-79
2022/02/21 01:52:15;;;;;;;0.63;0.40;;;7.20;99.90;;;;;;4999794;28;20186;-78
2022/02/21 01:54:42;;;;;;;1.47;0.50;;;7.20;99.90;;;;;;4999496;28;20208;-80
2022/02/21 01:57:08;;;;;;;0.77;0.53;;;7.20;99.90;;;;;;4997792;28;20188;-79
2022/02/21 01:59:36;;;;;;;1.57;0.50;;;7.20;99.90;;;;;;4999089;28;20204;-79
2022/02/21 02:02:02;;;;;;;0.50;0.30;;;7.10;99.90;;;;;;4999367;28;20191;-80
2022/02/21 02:04:28;;;;;;;0.50;0.23;;;7.10;99.90;;;;;;4997476;28;20677;-79
2022/02/21 02:06:53;;;;;;;2.20;0.50;;;7.10;99.90;;;;;;4997702;28;20298;-79
2022/02/21 02:09:19;;;;;;;1.97;1.13;;;7.00;99.90;;;;;;4997487;28;20682;-80
2022/02/21 02:11:45;;;;;;;2.10;0.70;;;7.00;99.90;;;;;;4997614;28;20215;-79
2022/02/21 02:14:34;;;;;;;0.80;0.40;;;7.10;99.90;;;;;;4995968;28;20714;-78
2022/02/21 02:17:03;;;;;;;1.47;0.40;;;7.00;99.90;;;;;;4997125;28;20231;-78
2022/02/21 02:19:29;;;;;;;0.53;0.30;;;7.00;99.90;;;;;;4997568;28;20323;-78
2022/02/21 02:21:57;;;;;;;0.20;0.20;;;6.90;99.90;;;;;;4997667;28;20652;-77
2022/02/21 02:24:25;;;;;;;0.20;0.20;;;6.90;99.90;;;;;;4997322;28;20196;-78
2022/02/21 02:26:54;;;;;;;0.47;0.20;;;6.90;99.90;;;;;;4997353;28;20207;-78
2022/02/21 02:29:21;;;;;;;0.30;0.30;;;6.90;99.90;;;;;;4996449;28;20207;-78
2022/02/21 02:31:47;;;;;;;0.30;0.30;;;6.90;99.90;;;;;;4997471;28;20183;-78
2022/02/21 02:34:14;;;;;;;0.20;0.20;;;6.90;99.90;;;;;;4997824;28;20184;-78
2022/02/21 02:36:39;;;;;;;0.20;0.20;;;6.90;99.90;;;;;;4998047;28;20197;-78
2022/02/21 02:39:05;;;;;;;0.67;0.30;;;6.90;99.90;;;;;;4998040;28;20208;-78
2022/02/21 02:41:30;;;;;;;0.83;0.47;;;6.90;99.90;;;;;;4996198;28;20243;-79
2022/02/21 02:43:56;;;;;;;1.13;0.40;;;6.90;99.90;;;;;;4996345;28;20249;-78
2022/02/21 02:46:21;;;;;;;2.30;0.40;;;6.90;99.90;;;;;;4997647;28;20214;-77
2022/02/21 02:48:47;;;;;;;0.40;0.30;;;6.90;99.90;;;;;;4997480;28;20223;-78
2022/02/21 02:51:12;;;;;;;0.60;0.50;;;6.80;99.90;;;;;;5001922;28;20238;-77
2022/02/21 02:53:38;;;;;;;2.47;0.63;;;6.80;99.90;;;;;;5005233;28;20187;-80
2022/02/21 02:56:04;;;;;;;1.47;0.80;;;6.80;99.90;;;;;;5000808;28;20191;-78
2022/02/21 02:58:29;;;;;;;2.53;0.90;;;6.80;99.90;;;;;;5002981;28;20222;-78
2022/02/21 03:00:55;;;;;;;1.63;0.53;;;6.70;99.90;;;;;;5002670;28;20327;-78
2022/02/21 03:03:20;;;;;;;1.33;0.50;;;6.70;99.90;;;;;;5002936;28;20274;-77
2022/02/21 03:05:46;;;;;;;0.30;0.30;;;6.70;99.90;;;;;;5003893;28;20207;-80
2022/02/21 03:08:12;;;;;;;1.67;0.60;;;6.60;99.90;;;;;;5004249;28;20278;-76
2022/02/21 03:10:37;;;;;;;1.97;0.50;;;6.50;99.90;;;;;;5009808;28;20254;-78
2022/02/21 03:13:03;;;;;;;1.37;0.80;;;6.40;99.90;;;;;;5003255;28;20195;-77
2022/02/21 03:15:28;;;;;;;0.57;0.33;;;6.20;99.90;;;;;;5019418;28;20188;-78
2022/02/21 03:17:54;;;;;;;0.30;0.30;;;6.10;99.90;;;;;;5003139;28;20191;-76
2022/02/21 03:20:19;;;;;;;0.30;0.20;;;6.00;99.90;;;;;;5003431;28;20234;-78
2022/02/21 03:22:45;;;;;;;2.33;0.40;;;5.90;99.90;;;;;;5003154;28;20662;-80
2022/02/21 03:25:13;;;;;;;0.77;0.40;;;5.90;99.90;;;;;;5000551;28;20190;-80
2022/02/21 03:27:43;;;;;;;1.33;0.43;;;5.90;99.90;;;;;;5003276;28;20301;-79
2022/02/21 03:30:10;;;;;;;1.87;0.50;;;5.80;99.90;;;;;;5002082;28;20576;-80
2022/02/21 03:32:36;;;;;;;2.13;0.50;;;5.70;99.90;;;;;;5002550;28;20399;-77
2022/02/21 03:35:02;;;;;;;1.63;0.30;;;5.70;99.90;;;;;;5003587;28;20184;-80
2022/02/21 03:37:27;;;;;;;0.73;0.30;;;5.60;99.90;;;;;;5017550;28;20543;-77
2022/02/21 03:39:53;;;;;;;1.97;0.47;;;5.50;99.90;;;;;;5001608;28;20206;-79
2022/02/21 03:42:18;;;;;;;1.60;0.50;;;5.50;99.90;;;;;;5016993;28;20188;-77
2022/02/21 03:44:44;;;;;;;1.53;0.63;;;5.50;99.90;;;;;;5003212;28;20179;-77
2022/02/21 03:47:10;;;;;;;1.53;0.37;;;5.60;99.90;;;;;;5000844;28;20274;-76
2022/02/21 03:49:35;;;;;;;4.03;0.67;;;5.60;99.90;;;;;;5002337;28;21162;-77
2022/02/21 03:52:01;;;;;;;1.13;0.47;;;5.60;99.90;;;;;;5009161;28;20230;-77
2022/02/21 03:54:26;;;;;;;1.30;0.50;;;5.00;99.90;;;;;;5002137;28;20188;-77
2022/02/21 03:56:52;;;;;;;0.93;0.33;;;4.60;99.90;;;;;;5002380;28;20244;-77
2022/02/21 03:59:17;;;;;;;4.30;0.73;;;4.40;99.90;;;;;;5000622;28;20211;-78
2022/02/21 04:01:43;;;;;;;0.77;0.47;;;4.30;99.90;;;;;;4996183;28;20203;-77
2022/02/21 04:04:08;;;;;;;2.80;0.50;;;4.20;99.90;;;;;;5012071;28;20341;-76
2022/02/21 04:06:34;;;;;;;1.17;0.60;;;4.20;99.90;;;;;;4997100;28;20219;-77
2022/02/21 04:09:00;;;;;;;3.07;0.60;;;4.20;99.90;;;;;;4997133;28;20863;-80
2022/02/21 04:11:25;;;;;;;2.77;1.10;;;4.10;99.90;;;;;;4999366;28;20662;-77
2022/02/21 04:13:51;;;;;;;2.70;0.70;;;4.10;99.90;;;;;;4998120;28;20768;-79
2022/02/21 04:16:16;;;;;;;2.70;0.60;;;4.10;99.90;;;;;;4999726;28;20188;-77
2022/02/21 04:18:42;;;;;;;5.67;1.20;;;4.20;99.90;;;;;;4998469;28;20207;-77
2022/02/21 04:21:08;;;;;;;4.17;0.90;;;4.20;99.90;;;;;;5013615;28;20261;-77
2022/02/21 04:23:33;;;;;;;5.17;1.20;;;4.20;99.90;;;;;;4998767;28;20846;-76
2022/02/21 04:25:59;;;;;;;3.17;1.10;;;4.20;99.90;;;;;;4996970;28;20204;-79
2022/02/21 04:28:24;;;;;;;3.37;0.83;;;4.10;99.90;;;;;;4995824;28;20572;-77
2022/02/21 04:30:50;;;;;;;6.90;1.30;;;4.00;99.90;;;;;;5012372;28;21138;-79
2022/02/21 04:33:16;;;;;;;3.80;1.00;;;4.00;99.90;;;;;;4998378;28;20180;-77
2022/02/21 04:35:41;;;;;;;3.40;0.70;;;4.00;99.90;;;;;;4993471;28;21049;-77
2022/02/21 04:38:07;;;;;;;6.07;1.30;;;4.10;99.90;;;;;;4996839;28;20187;-78
2022/02/21 04:40:33;;;;;;;4.37;0.80;;;4.10;99.90;;;;;;5001254;28;20212;-78
2022/02/21 04:42:58;;;;;;;5.60;1.00;;;4.20;99.90;;;;;;4998326;28;20192;-80
2022/02/21 04:45:24;;;;;;;2.67;1.03;;;4.30;99.90;;;;;;4998135;28;20183;-80
2022/02/21 04:47:51;;;;;;;4.93;1.67;;;4.40;99.90;;;;;;5000188;28;20187;-79
2022/02/21 04:50:17;;;;;;;3.27;1.20;;;4.30;99.90;;;;;;4999779;28;20215;-79
2022/02/21 04:52:43;;;;;;;4.87;1.30;;;4.30;99.90;;;;;;5017480;28;20184;-81
2022/02/21 04:55:12;;;;;;;4.47;1.20;;;4.30;99.90;;;;;;4999815;28;20190;-81
2022/02/21 04:57:38;;;;;;;3.53;1.27;;;4.30;99.90;;;;;;4999866;28;20191;-79
2022/02/21 05:00:06;;;;;;;8.37;1.57;;;4.30;99.90;;;;;;5016473;28;20242;-79
2022/02/21 05:02:32;;;;;;;4.47;1.10;;;4.30;99.90;;;;;;4998661;28;20203;-81
2022/02/21 05:04:57;;;;;;;4.67;1.10;;;4.30;99.90;;;;;;5014113;28;20229;-78
2022/02/21 05:07:23;;;;;;;2.07;0.90;;;4.30;99.90;;;;;;4996375;28;20254;-78
2022/02/21 05:09:48;;;;;;;2.27;0.73;;;4.20;99.90;;;;;;5011593;28;20211;-78
2022/02/21 05:12:14;;;;;;;5.50;1.83;;;4.10;99.90;;;;;;5005490;28;20564;-79
2022/02/21 05:14:40;;;;;;;6.53;1.33;;;4.00;99.90;;;;;;4998284;28;20191;-79
2022/02/21 05:17:06;;;;;;;4.47;1.30;;;4.00;99.90;;;;;;4999109;28;20199;-77
2022/02/21 05:19:32;;;;;;;4.53;1.43;;;4.00;99.90;;;;;;4998099;28;20212;-79
2022/02/21 05:21:57;;;;;;;4.77;1.40;;;4.00;99.90;;;;;;5014950;28;20187;-79
2022/02/21 05:24:23;;;;;;;6.23;1.50;;;4.10;99.90;;;;;;4999952;28;20642;-79
2022/02/21 05:26:49;;;;;;;4.87;1.37;;;4.10;99.90;;;;;;4999859;28;20254;-79
2022/02/21 05:29:15;;;;;;;5.20;1.30;;;4.10;99.90;;;;;;5000424;28;20647;-78
2022/02/21 05:31:42;;;;;;;4.07;1.20;;;4.20;99.90;;;;;;4999572;28;20191;-80
2022/02/21 05:34:07;;;;;;;6.33;1.53;;;4.20;99.90;;;;;;5013202;28;20183;-78
2022/02/21 05:36:33;;;;;;;4.77;1.63;;;4.00;99.90;;;;;;4999722;28;20337;-77
2022/02/21 05:38:59;;;;;;;5.20;1.50;;;3.90;99.90;;;;;;4997792;28;20266;-78
2022/02/21 05:41:24;;;;;;;6.33;1.10;;;3.70;99.90;;;;;;5002539;28;20184;-79
2022/02/21 05:43:50;;;;;;;4.73;1.47;;;3.70;99.90;;;;;;5002737;28;20275;-77
2022/02/21 05:46:15;;;;;;;3.00;0.90;;;3.60;99.90;;;;;;4999844;28;20717;-78
2022/02/21 05:48:41;;;;;;;3.50;1.20;;;3.50;99.90;;;;;;4998701;28;20188;-78
2022/02/21 05:51:07;;;;;;;2.27;0.67;;;3.50;99.90;;;;;;4999547;28;20194;-78
2022/02/21 05:53:32;;;;;;;4.90;1.37;;;3.40;99.90;;;;;;4999989;28;20226;-77
2022/02/21 05:55:58;;;;;;;3.47;0.80;;;3.30;99.90;;;;;;4999162;28;20196;-79
2022/02/21 05:58:23;;;;;;;1.40;0.67;;;3.30;99.90;;;;;;4998920;28;20184;-77
2022/02/21 06:00:49;;;;;;;4.47;0.73;;;3.30;99.90;;;;;;5015965;28;20286;-79
2022/02/21 06:03:18;;;;;;;2.30;0.70;;;3.40;99.90;;;;;;4998968;28;20196;-79
2022/02/21 06:05:46;;;;;;;3.63;0.80;;;3.50;99.90;;;;;;4998886;28;20211;-77
2022/02/21 06:08:12;;;;;;;1.40;0.40;;;3.60;99.90;;;;;;4998668;28;20176;-79
2022/02/21 06:10:38;;;;;;;1.93;0.67;;;3.60;99.90;;;;;;4998709;28;20207;-77
2022/02/21 06:13:03;;;;;;;2.90;1.10;;;3.70;99.90;;;;;;4997308;28;20484;-78
2022/02/21 06:15:29;;;;;;;3.97;1.30;;;3.80;99.90;;;;;;4996329;28;20663;-78
2022/02/21 06:17:54;;;;;;;5.70;1.00;;;3.70;99.90;;;;;;4998238;28;20234;-79
2022/02/21 06:20:20;;;;;;;1.77;0.50;;;3.50;99.90;;;;;;4998477;28;20200;-78
2022/02/21 06:22:46;;;;;;;2.20;0.50;;;3.20;99.90;;;;;;4996813;28;20180;-77
2022/02/21 06:25:11;;;;;;;1.93;0.60;;;3.10;99.90;;;;;;4996072;28;20208;-78
2022/02/21 06:27:37;;;;;;;2.20;0.73;;;3.00;99.90;;;;;;4990903;28;20293;-78
2022/02/21 06:30:04;;;;;;;2.50;0.70;;;2.90;99.90;;;;;;4999144;28;20215;-78
2022/02/21 06:32:29;;;;;;;1.23;0.53;;;2.80;99.90;;;;;;4998566;28;20189;-79
2022/02/21 06:34:55;;;;;;;1.50;0.40;;;2.70;99.90;;;;;;4995361;28;20180;-78
2022/02/21 06:37:21;;;;;;;1.00;0.43;;;2.70;99.90;;;;;;5011793;28;20489;-78
2022/02/21 06:39:46;;;;;;;2.83;1.13;;;2.60;99.90;;;;;;4987438;28;20295;-78
2022/02/21 06:42:12;;;;;;;3.83;1.00;;;2.50;99.90;;;;;;4993034;28;20219;-79
2022/02/21 06:44:37;;;;;;;1.87;1.00;;;2.50;99.90;;;;;;4986891;28;20264;-79
2022/02/21 06:47:03;;;;;;;6.63;1.90;;;2.60;99.90;;;;;;4998108;28;20599;-79
2022/02/21 06:49:29;;;;;;;3.87;1.40;;;2.60;99.90;;;;;;4991592;28;20578;-79
2022/02/21 06:51:55;;;;;;;3.07;1.40;;;2.50;99.90;;;;;;4991068;28;20183;-77
2022/02/21 06:54:22;;;;;;;5.67;2.03;;;2.60;99.90;;;;;;5001785;28;20567;-78
2022/02/21 06:56:48;;;;;;;5.30;1.27;;;2.70;99.90;;;;;;4994168;28;20526;-79
2022/02/21 06:59:14;;;;;;;4.27;1.27;;;2.90;99.90;;;;;;4997689;28;20206;-79
2022/02/21 07:01:39;;;;;;;1.77;0.80;;;3.10;99.90;;;;;;5010488;28;20191;-76
2022/02/21 07:04:05;;;;;;;4.80;1.10;;;3.20;99.90;;;;;;5001406;28;20285;-79
2022/02/21 07:06:35;;;;;;;4.60;1.07;;;3.30;99.90;;;;;;4991077;28;20210;-79
2022/02/21 07:09:01;;;;;;;3.83;1.17;;;3.30;99.90;;;;;;4992053;28;20203;-76
2022/02/21 07:11:26;;;;;;;2.33;1.00;;;3.40;99.90;;;;;;5008361;28;20203;-78
2022/02/21 07:13:52;;;;;;;3.40;1.17;;;3.40;99.90;;;;;;4996726;28;20242;-80
2022/02/21 07:16:17;;;;;;;5.13;1.20;;;3.40;99.90;;;;;;4995329;28;20176;-78
2022/02/21 07:18:43;;;;;;;6.20;1.37;;;3.50;99.90;;;;;;4994538;28;20188;-80
2022/02/21 07:21:09;;;;;;;5.13;0.97;;;3.50;99.90;;;;;;4998773;28;20188;-80
2022/02/21 07:23:35;;;;;;;8.83;2.20;;;3.50;99.90;;;;;;5003721;28;20234;-79
2022/02/21 07:26:02;;;;;;;3.17;0.97;;;3.60;99.90;;;;;;4993553;28;20299;-77
2022/02/21 07:28:27;;;;;;;4.50;1.03;;;3.60;99.90;;;;;;4990546;28;20184;-79
2022/02/21 07:30:53;;;;;;;4.20;1.00;;;3.60;99.90;;;;;;4995138;28;20188;-78
2022/02/21 07:33:18;;;;;;;2.30;0.70;;;3.70;99.90;;;;;;5014769;28;20239;-78
2022/02/21 07:35:44;;;;;;;2.37;0.70;;;3.70;99.90;;;;;;4996747;28;20282;-79
2022/02/21 07:38:10;;;;;;;3.23;0.90;;;3.70;99.90;;;;;;5001327;28;20247;-78
2022/02/21 07:40:35;;;;;;;1.30;0.90;;;3.70;99.90;;;;;;5003212;28;20212;-81
2022/02/21 07:43:01;;;;;;;1.93;0.77;;;3.70;99.90;;;;;;5001794;28;20188;-78
2022/02/21 07:45:27;;;;;;;2.60;0.80;;;3.80;99.90;;;;;;5003380;28;20207;-78
2022/02/21 07:47:56;;;;;;;6.47;1.00;;;3.90;99.90;;;;;;5001103;28;20189;-78
2022/02/21 07:50:21;;;;;;;3.87;1.20;;;4.00;99.90;;;;;;5000816;28;20832;-79
2022/02/21 07:52:48;;;;;;;3.70;0.80;;;4.00;99.90;;;;;;5000166;28;20188;-78
2022/02/21 07:55:15;;;;;;;5.93;0.93;;;4.10;99.90;;;;;;5001341;28;20182;-78
2022/02/21 07:57:43;;;;;;;1.63;0.80;;;4.20;99.90;;;;;;5002552;28;20184;-81
2022/02/21 08:00:11;;;;;;;3.60;1.00;;;4.20;99.90;;;;;;4998717;28;20211;-80
2022/02/21 08:02:37;;;;;;;4.17;0.80;;;4.30;99.90;;;;;;5007872;28;20268;-79
2022/02/21 08:05:03;;;;;;;5.10;1.53;;;4.40;99.90;;;;;;5013755;28;20176;-77
2022/02/21 08:07:30;;;;;;;5.57;1.10;;;4.50;99.90;;;;;;5003367;28;20380;-79
2022/02/21 08:09:56;;;;;;;2.10;0.57;;;4.50;99.90;;;;;;5001396;28;20705;-79
2022/02/21 08:12:22;;;;;;;4.00;1.23;;;4.50;99.90;;;;;;5001124;28;20200;-80
2022/02/21 08:14:47;;;;;;;4.43;0.87;;;4.50;99.90;;;;;;5016471;28;20246;-78
2022/02/21 08:17:13;;;;;;;2.83;0.70;;;4.50;99.90;;;;;;4997167;28;20247;-78
2022/02/21 08:19:39;;;;;;;3.73;0.90;;;4.60;99.90;;;;;;4995993;28;20215;-80
2022/02/21 08:22:04;;;;;;;1.90;0.70;;;4.70;99.90;;;;;;5018436;28;20623;-78
2022/02/21 08:24:30;;;;;;;3.50;0.90;;;4.70;99.90;;;;;;5015070;28;20215;-79
2022/02/21 08:26:56;;;;;;;4.27;0.93;;;4.60;99.90;;;;;;4999257;28;20219;-77
2022/02/21 08:29:21;;;;;;;2.30;0.90;;;4.60;99.90;;;;;;4999813;28;20705;-79
2022/02/21 08:31:48;;;;;;;5.27;1.30;;;4.70;99.90;;;;;;5001715;28;20260;-80
2022/02/21 08:34:16;;;;;;;4.93;1.13;;;4.80;99.90;;;;;;5002361;28;20171;-79
2022/02/21 08:36:42;;;;;;;6.83;2.20;;;4.90;99.90;;;;;;4997734;28;20188;-78
2022/02/21 08:39:08;;;;;;;3.67;1.17;;;4.90;99.90;;;;;;4997014;28;20216;-78
2022/02/21 08:41:33;;;;;;;2.50;0.83;;;4.90;99.90;;;;;;5000734;28;20180;-78
2022/02/21 08:43:59;;;;;;;6.97;1.63;;;5.00;99.90;;;;;;4990975;28;20463;-77
2022/02/21 08:46:24;;;;;;;2.77;1.03;;;5.00;99.90;;;;;;4985668;28;20695;-77
2022/02/21 08:48:50;;;;;;;6.70;1.50;;;5.00;99.90;;;;;;4988599;28;20599;-78
2022/02/21 08:51:16;;;;;;;5.40;1.13;;;4.90;99.90;;;;;;4986037;28;20188;-79
2022/02/21 08:53:42;;;;;;;1.53;0.80;;;5.00;99.90;;;;;;4994662;28;20215;-78
2022/02/21 08:56:08;;;;;;;5.27;0.87;;;4.90;99.90;;;;;;5001714;28;20215;-77
2022/02/21 08:58:34;;;;;;;4.83;1.23;;;4.90;99.90;;;;;;5005654;28;20223;-78
2022/02/21 09:01:00;;;;;;;5.43;1.30;;;4.90;99.90;;;;;;5003312;28;20183;-81
2022/02/21 09:03:26;;;;;;;3.27;1.50;;;4.90;99.90;;;;;;4996821;28;20271;-78
2022/02/21 09:05:55;;;;;;;3.67;1.20;;;4.90;99.90;;;;;;4995982;28;20223;-79
2022/02/21 09:08:21;;;;;;;17.30;2.13;;;4.90;99.90;;;;;;4998153;28;20201;-80
2022/02/21 09:10:47;;;;;;;3.13;1.10;;;5.00;99.90;;;;;;4999332;28;20587;-80
2022/02/21 09:13:13;;;;;;;5.60;1.40;;;5.00;99.90;;;;;;5016400;28;20188;-81
2022/02/21 09:15:38;;;;;;;5.17;1.50;;;5.00;99.90;;;;;;5000327;28;20184;-80
2022/02/21 09:18:05;;;;;;;4.40;1.47;;;4.90;99.90;;;;;;5014335;28;20217;-78
2022/02/21 09:20:38;;;;;;;3.40;1.67;;;4.80;99.90;;;;;;5016397;28;20297;-78
2022/02/21 09:23:04;;;;;;;5.00;2.10;;;4.80;99.90;;;;;;5003739;28;21244;-81
2022/02/21 09:25:30;;;;;;;5.83;1.20;;;4.90;99.90;;;;;;4997920;28;20279;-78
2022/02/21 09:27:55;;;;;;;4.47;1.23;;;4.90;99.90;;;;;;5015525;28;20879;-79
2022/02/21 09:30:21;;;;;;;7.50;1.40;;;5.00;99.90;;;;;;5008560;28;20207;-77
2022/02/21 09:32:47;;;;;;;3.43;1.10;;;5.00;99.90;;;;;;5009030;28;20275;-78
2022/02/21 09:35:13;;;;;;;5.33;2.00;;;5.00;99.90;;;;;;4998648;28;20200;-80
2022/02/21 09:37:40;;;;;;;4.63;1.53;;;5.10;99.90;;;;;;5000549;28;20325;-79
2022/02/21 09:40:10;;;;;;;4.77;1.20;;;5.10;99.90;;;;;;5005029;28;20212;-77
2022/02/21 09:42:38;;;;;;;7.00;1.70;;;5.10;99.90;;;;;;4998118;28;20191;-77
2022/02/21 09:45:05;;;;;;;6.20;1.43;;;5.10;99.90;;;;;;5010785;28;20192;-79
2022/02/21 09:47:32;;;;;;;3.60;1.13;;;5.00;99.90;;;;;;4994176;28;20365;-80
2022/02/21 09:49:58;;;;;;;4.67;1.10;;;5.00;99.90;;;;;;4998603;28;20784;-80
2022/02/21 09:52:26;;;;;;;4.93;0.97;;;4.90;99.90;;;;;;4997040;28;20177;-79
2022/02/21 09:54:52;;;;;;;2.93;0.97;;;5.00;99.90;;;;;;4997872;28;20227;-78
2022/02/21 09:57:18;;;;;;;6.77;1.43;;;5.00;99.90;;;;;;5004486;28;20211;-80
2022/02/21 09:59:44;;;;;;;6.43;1.47;;;5.10;99.90;;;;;;4999814;28;20210;-78
2022/02/21 10:02:23;;;;;;;2.30;0.93;;;5.10;99.90;;;;;;4997186;28;20271;-77
2022/02/21 10:05:15;;;;;;;4.37;1.20;;;5.10;99.90;;;;;;4995744;28;20176;-77
2022/02/21 10:07:42;;;;;;;4.20;1.10;;;5.10;99.90;;;;;;4998752;28;20744;-78
2022/02/21 10:10:09;;;;;;;5.73;1.47;;;5.20;99.90;;;;;;4997768;28;20192;-78
2022/02/21 10:12:57;;;;;;;4.27;1.50;;;5.20;99.90;;;;;;4997916;28;20298;-80
2022/02/21 10:15:25;;;;;;;3.27;1.33;;;5.20;99.90;;;;;;5012542;28;20186;-76
2022/02/21 10:18:10;;;;;;;4.27;1.30;;;5.20;99.90;;;;;;5013621;28;20175;-80
2022/02/21 10:20:52;;;;;;;5.07;1.33;;;5.30;99.90;;;;;;5004334;28;20579;-80
2022/02/21 10:23:18;;;;;;;4.17;1.30;;;5.40;99.90;;;;;;4992408;28;20180;-79
2022/02/21 10:25:57;;;;;;;2.77;1.33;;;5.50;99.90;;;;;;5001025;28;20192;-78
2022/02/21 10:28:27;;;;;;;3.97;1.20;;;5.70;99.90;;;;;;5006035;28;20546;-77
2022/02/21 10:31:13;;;;;;;3.30;0.97;;;5.60;99.90;;;;;;5007426;28;20491;-80
2022/02/21 10:33:39;;;;;;;5.57;1.37;;;5.60;99.90;;;;;;4995475;28;20187;-79
2022/02/21 10:36:29;;;;;;;4.40;1.40;;;5.70;99.90;;;;;;4996724;28;20198;-78
2022/02/21 10:38:55;;;;;;;2.73;1.20;;;5.60;99.90;;;;;;4988369;28;20694;-77
2022/02/21 10:41:22;;;;;;;4.27;1.53;;;5.60;99.90;;;;;;4990260;28;20187;-77
2022/02/21 10:43:48;;;;;;;4.60;1.10;;;5.70;99.90;;;;;;4992834;28;20231;-79
2022/02/21 10:46:14;;;;;;;4.23;1.03;;;5.60;99.90;;;;;;4995127;28;20227;-78
2022/02/21 10:48:44;;;;;;;4.10;1.20;;;5.60;99.90;;;;;;5011032;28;20211;-78
2022/02/21 10:51:11;;;;;;;3.80;1.10;;;5.50;99.90;;;;;;4991357;28;20551;-76
2022/02/21 10:53:42;;;;;;;3.93;1.43;;;5.50;99.90;;;;;;4993902;28;20191;-81
2022/02/21 10:56:09;;;;;;;2.80;1.33;;;5.50;99.90;;;;;;4989413;28;20184;-79
2022/02/21 10:58:34;;;;;;;3.13;1.20;;;5.50;99.90;;;;;;5012269;28;20239;-79
2022/02/21 11:01:01;;;;;;;3.53;1.40;;;5.60;99.90;;;;;;4992471;28;20202;-78
2022/02/21 11:03:28;;;;;;;4.97;1.37;;;5.60;99.90;;;;;;5014552;28;20203;-78
2022/02/21 11:05:56;;;;;;;3.23;1.30;;;5.50;99.90;;;;;;5013412;28;20180;-78
2022/02/21 11:08:22;;;;;;;3.87;1.43;;;5.50;99.90;;;;;;4993182;28;20175;-77
2022/02/21 11:10:52;;;;;;;1.03;0.80;;;5.50;99.90;;;;;;4995815;28;20196;-78
2022/02/21 11:13:20;;;;;;;2.90;1.03;;;5.50;99.90;;;;;;4999725;28;20176;-78
2022/02/21 11:15:48;;;;;;;6.37;1.40;;;5.50;99.90;;;;;;4997942;28;20721;-79
2022/02/21 11:18:17;;;;;;;5.43;1.37;;;5.40;99.90;;;;;;4992529;28;20202;-78
2022/02/21 11:20:44;;;;;;;3.33;1.40;;;5.50;99.90;;;;;;4995111;28;20210;-78
2022/02/21 11:23:10;;;;;;;4.90;1.37;;;5.50;99.90;;;;;;4993153;28;20184;-79
2022/02/21 11:25:50;;;;;;;4.67;1.30;;;5.50;99.90;;;;;;4994420;28;20189;-81
2022/02/21 11:28:26;;;;;;;3.30;1.00;;;5.50;99.90;;;;;;5007064;28;20187;-78
2022/02/21 11:30:56;;;;;;;7.23;2.50;;;5.40;99.90;;;;;;4998171;28;20266;-78
2022/02/21 11:33:22;;;;;;;4.23;1.97;;;5.40;99.90;;;;;;5002438;28;20583;-77
2022/02/21 11:36:07;;;;;;;5.53;1.47;;;5.50;99.90;;;;;;5017906;28;20245;-78
2022/02/21 11:38:36;;;;;;;8.43;1.73;;;5.50;99.90;;;;;;5001297;28;20191;-79
2022/02/21 11:41:09;;;;;;;4.10;1.10;;;5.50;99.90;;;;;;5001375;28;20191;-81
2022/02/21 11:43:45;;;;;;;4.97;1.20;;;5.50;99.90;;;;;;5000692;28;20183;-77
2022/02/21 11:46:24;;;;;;;5.20;0.90;;;5.50;99.90;;;;;;5002438;28;20203;-80
2022/02/21 11:49:01;;;;;;;2.40;1.00;;;5.60;99.90;;;;;;5001575;28;20218;-78
2022/02/21 11:51:39;;;;;;;6.80;1.60;;;5.70;99.90;;;;;;4998894;28;20266;-79
2022/02/21 11:54:13;;;;;;;2.90;1.30;;;5.80;99.90;;;;;;5000976;28;20721;-80
2022/02/21 11:56:48;;;;;;;3.10;0.90;;;5.90;99.90;;;;;;5001321;28;20198;-78
2022/02/21 11:59:23;;;;;;;4.37;1.00;;;5.90;99.90;;;;;;5015475;28;20203;-79
2022/02/21 12:02:12;;;;;;;2.73;1.27;;;5.90;99.90;;;;;;4999137;28;20223;-78
2022/02/21 12:04:56;;;;;;;3.17;1.00;;;6.00;99.90;;;;;;5007185;28;20187;-76
2022/02/21 12:07:26;;;;;;;1.63;1.00;;;6.00;99.90;;;;;;4998769;28;20261;-77
2022/02/21 12:10:20;;;;;;;4.70;1.53;;;5.90;99.90;;;;;;4996212;28;20253;-77
2022/02/21 12:12:52;;;;;;;3.57;1.90;;;5.90;99.90;;;;;;4997845;28;20549;-77
2022/02/21 12:15:19;;;;;;;3.13;1.30;;;6.00;99.90;;;;;;4998623;28;20176;-78
2022/02/21 12:17:45;;;;;;;5.20;1.87;;;6.00;99.90;;;;;;5001578;28;21004;-80
2022/02/21 12:20:31;;;;;;;4.87;1.80;;;6.00;99.90;;;;;;5002038;28;20251;-78
2022/02/21 12:23:08;;;;;;;2.53;1.10;;;6.00;99.90;;;;;;5002690;28;20561;-78
2022/02/21 12:25:41;;;;;;;2.90;1.37;;;5.80;99.90;;;;;;5008721;28;20194;-81
2022/02/21 12:28:24;;;;;;;4.63;0.97;;;5.80;99.90;;;;;;5001418;28;20188;-79
2022/02/21 12:30:54;;;;;;;4.23;0.80;;;5.50;99.90;;;;;;5002018;28;20211;-78
2022/02/21 12:33:32;;;;;;;1.83;1.00;;;5.20;99.90;;;;;;5000459;28;20722;-78
2022/02/21 12:36:04;;;;;;;4.20;1.40;;;4.90;99.90;;;;;;5014761;28;20673;-79
2022/02/21 12:38:34;;;;;;;2.00;1.00;;;4.90;99.90;;;;;;4999427;28;20216;-81
2022/02/21 12:41:07;;;;;;;2.67;1.40;;;4.80;99.90;;;;;;5002206;28;20594;-79
2022/02/21 12:43:43;;;;;;;5.27;1.03;;;4.50;99.90;;;;;;5018034;28;20279;-78
2022/02/21 12:46:08;;;;;;;3.47;1.67;;;4.30;99.90;;;;;;5002697;28;20242;-79
2022/02/21 12:48:37;;;;;;;6.53;1.63;;;4.30;99.90;;;;;;5000986;28;20596;-76
2022/02/21 12:51:04;;;;;;;3.43;1.23;;;4.20;99.90;;;;;;5002420;28;20263;-81
2022/02/21 12:53:30;;;;;;;3.87;1.73;;;4.10;99.90;;;;;;5007140;28;20183;-79
2022/02/21 12:56:00;;;;;;;2.90;1.00;;;4.10;99.90;;;;;;4999213;28;20191;-76
2022/02/21 12:58:36;;;;;;;2.87;1.23;;;3.90;99.90;;;;;;5015058;28;20696;-79
2022/02/21 13:01:03;;;;;;;5.80;1.60;;;3.80;99.90;;;;;;5010850;28;20210;-77